createdAt,value
2023-05-06T00:00:08.508Z,13.00
2023-05-06T00:03:04.920Z,13.25
2023-05-06T00:05:33.549Z,14.00
2023-05-06T00:08:01.928Z,13.25
2023-05-06T00:10:30.526Z,14.00
2023-05-06T00:12:58.718Z,14.25
2023-05-06T00:15:28.393Z,14.00
2023-05-06T00:17:57.917Z,14.25
2023-05-06T00:20:27.451Z,14.33
2023-05-06T00:22:55.978Z,14.00
2023-05-06T00:25:24.438Z,14.25
2023-05-06T00:27:53.466Z,14.50
2023-05-06T00:30:21.991Z,14.25
2023-05-06T00:32:50.192Z,14.00
2023-05-06T00:35:18.860Z,15.00
2023-05-06T00:37:47.336Z,14.00
2023-05-06T00:40:15.816Z,14.00
2023-05-06T00:42:43.969Z,14.00
2023-05-06T00:45:12.445Z,14.00
2023-05-06T00:47:40.817Z,14.00
2023-05-06T00:50:09.498Z,14.00
2023-05-06T00:52:37.806Z,14.00
2023-05-06T00:55:07.073Z,15.00
2023-05-06T00:57:35.729Z,14.00
2023-05-06T01:00:07.309Z,15.25
2023-05-06T01:02:46.421Z,14.25
2023-05-06T01:05:22.551Z,14.25
2023-05-06T01:07:56.833Z,14.00
2023-05-06T01:10:43.244Z,15.00
2023-05-06T01:13:21.785Z,14.00
2023-05-06T01:15:56.030Z,14.25
2023-05-06T01:18:27.283Z,14.33
2023-05-06T01:20:56.882Z,14.00
2023-05-06T01:23:25.058Z,14.25
2023-05-06T01:25:53.643Z,13.25
2023-05-06T01:28:22.055Z,15.25
2023-05-06T01:31:00.217Z,14.00
2023-05-06T01:33:54.940Z,14.00
2023-05-06T01:36:29.972Z,14.00
2023-05-06T01:39:27.245Z,14.25
2023-05-06T01:41:57.811Z,14.50
2023-05-06T01:44:28.106Z,14.25
2023-05-06T01:46:56.781Z,14.25
2023-05-06T01:49:26.627Z,15.25
2023-05-06T01:51:55.587Z,15.00
2023-05-06T01:54:24.952Z,15.00
2023-05-06T01:56:54.607Z,15.00
2023-05-06T01:59:22.819Z,14.33
2023-05-06T02:01:51.450Z,14.67
2023-05-06T02:04:19.941Z,13.00
2023-05-06T02:06:48.388Z,14.50
2023-05-06T02:09:18.793Z,15.00
2023-05-06T02:11:53.554Z,15.00
2023-05-06T02:14:21.853Z,14.33
2023-05-06T02:16:51.519Z,15.00
2023-05-06T02:19:19.745Z,14.75
2023-05-06T02:21:48.525Z,15.00
2023-05-06T02:24:16.628Z,16.25
2023-05-06T02:26:45.104Z,15.25
2023-05-06T02:29:13.294Z,14.00
2023-05-06T02:31:41.936Z,15.75
2023-05-06T02:34:11.373Z,15.00
2023-05-06T02:36:40.025Z,16.00
2023-05-06T02:39:08.532Z,15.33
2023-05-06T02:41:37.009Z,15.00
2023-05-06T02:44:05.451Z,15.33
2023-05-06T02:46:33.903Z,15.00
2023-05-06T02:49:02.351Z,15.00
2023-05-06T02:51:32.086Z,15.00
2023-05-06T02:54:00.191Z,15.00
2023-05-06T02:56:28.752Z,15.00
2023-05-06T02:58:57.048Z,15.25
2023-05-06T03:01:26.112Z,16.00
2023-05-06T03:03:54.333Z,16.00
2023-05-06T03:06:22.863Z,15.00
2023-05-06T03:08:50.956Z,15.75
2023-05-06T03:11:19.722Z,16.50
2023-05-06T03:13:47.870Z,17.25
2023-05-06T03:16:16.615Z,16.00
2023-05-06T03:18:49.433Z,15.00
2023-05-06T03:21:19.089Z,15.33
2023-05-06T03:23:49.104Z,16.50
2023-05-06T03:26:21.660Z,16.00
2023-05-06T03:28:50.388Z,16.25
2023-05-06T03:31:22.021Z,15.00
2023-05-06T03:33:50.272Z,15.00
2023-05-06T03:36:20.179Z,16.25
2023-05-06T03:38:50.106Z,17.00
2023-05-06T03:41:18.664Z,15.50
2023-05-06T03:43:47.413Z,17.00
2023-05-06T03:46:18.560Z,15.25
2023-05-06T03:48:47.177Z,15.00
2023-05-06T03:51:18.944Z,16.00
2023-05-06T03:53:47.497Z,16.25
2023-05-06T03:56:18.451Z,16.00
2023-05-06T03:58:49.984Z,16.25
2023-05-06T04:01:19.715Z,16.00
2023-05-06T04:03:48.080Z,16.00
2023-05-06T04:06:16.904Z,15.33
2023-05-06T04:08:45.294Z,16.00
2023-05-06T04:11:14.052Z,17.25
2023-05-06T04:13:43.082Z,16.00
2023-05-06T04:16:16.854Z,16.25
2023-05-06T04:18:46.430Z,16.00
2023-05-06T04:21:18.714Z,17.25
2023-05-06T04:23:55.170Z,17.00
2023-05-06T04:26:31.819Z,16.00
2023-05-06T04:29:01.122Z,15.25
2023-05-06T04:31:33.233Z,15.00
2023-05-06T04:34:05.028Z,17.25
2023-05-06T04:36:34.806Z,16.00
2023-05-06T04:39:14.845Z,16.00
2023-05-06T04:41:44.761Z,15.33
2023-05-06T04:44:17.017Z,16.00
2023-05-06T04:46:48.757Z,16.00
2023-05-06T04:49:18.153Z,17.00
2023-05-06T04:51:46.944Z,17.50
2023-05-06T04:54:16.137Z,16.00
2023-05-06T04:56:44.913Z,16.00
2023-05-06T04:59:14.984Z,16.50
2023-05-06T05:01:45.228Z,17.25
2023-05-06T05:04:13.743Z,17.25
2023-05-06T05:06:42.485Z,17.25
2023-05-06T05:09:11.489Z,16.50
2023-05-06T05:11:43.590Z,17.00
2023-05-06T05:14:11.928Z,18.00
2023-05-06T05:16:40.753Z,17.00
2023-05-06T05:19:09.727Z,17.50
2023-05-06T05:21:39.296Z,16.00
2023-05-06T05:24:09.736Z,17.00
2023-05-06T05:26:38.446Z,19.00
2023-05-06T05:29:06.980Z,20.00
2023-05-06T05:31:38.337Z,18.00
2023-05-06T05:34:07.368Z,18.00
2023-05-06T05:36:36.504Z,18.00
2023-05-06T05:39:09.529Z,17.25
2023-05-06T05:41:44.253Z,17.00
2023-05-06T05:44:12.968Z,17.25
2023-05-06T05:46:42.726Z,17.75
2023-05-06T05:49:14.611Z,16.00
2023-05-06T05:51:43.751Z,17.25
2023-05-06T05:54:15.176Z,18.00
2023-05-06T05:56:44.181Z,17.25
2023-05-06T05:59:12.640Z,16.25
2023-05-06T06:01:41.680Z,17.00
2023-05-06T06:04:11.403Z,16.00
2023-05-06T06:06:40.244Z,17.25
2023-05-06T06:09:09.919Z,18.00
2023-05-06T06:11:40.976Z,17.50
2023-05-06T06:14:09.707Z,16.00
2023-05-06T06:16:38.909Z,16.25
2023-05-06T06:19:07.650Z,14.33
2023-05-06T06:21:37.327Z,15.50
2023-05-06T06:24:06.290Z,17.00
2023-05-06T06:26:35.540Z,20.00
2023-05-06T06:29:03.929Z,19.25
2023-05-06T06:31:34.589Z,21.25
2023-05-06T06:34:06.698Z,20.00
2023-05-06T06:36:35.540Z,22.00
2023-05-06T06:39:04.088Z,22.00
2023-05-06T06:41:32.733Z,22.25
2023-05-06T06:44:01.181Z,22.00
2023-05-06T06:46:31.396Z,22.00
2023-05-06T06:49:01.603Z,22.00
2023-05-06T06:51:30.392Z,22.25
2023-05-06T06:53:58.746Z,22.25
2023-05-06T06:56:27.799Z,23.00
2023-05-06T06:58:56.252Z,22.00
2023-05-06T07:01:24.965Z,21.67
2023-05-06T07:03:53.409Z,21.00
2023-05-06T07:06:22.260Z,22.25
2023-05-06T07:08:50.532Z,21.00
2023-05-06T07:11:19.488Z,22.00
2023-05-06T07:13:47.862Z,24.25
2023-05-06T07:16:16.555Z,24.00
2023-05-06T07:18:45.555Z,23.50
2023-05-06T07:21:14.230Z,22.25
2023-05-06T07:23:42.543Z,24.00
2023-05-06T07:26:11.118Z,25.33
2023-05-06T07:28:39.465Z,25.00
2023-05-06T07:31:08.143Z,24.00
2023-05-06T07:33:36.488Z,23.00
2023-05-06T07:36:05.395Z,23.00
2023-05-06T07:38:33.828Z,25.33
2023-05-06T07:41:02.482Z,23.00
2023-05-06T07:43:30.911Z,25.00
2023-05-06T07:46:03.229Z,26.00
2023-05-06T07:48:33.388Z,25.50
2023-05-06T07:51:02.243Z,25.00
2023-05-06T07:53:30.649Z,27.00
2023-05-06T07:56:02.460Z,26.25
2023-05-06T07:58:31.840Z,24.00
2023-05-06T08:01:00.888Z,22.25
2023-05-06T08:03:30.806Z,23.25
2023-05-06T08:06:00.490Z,26.00
2023-05-06T08:08:29.396Z,23.25
2023-05-06T08:10:58.766Z,22.50
2023-05-06T08:13:28.347Z,27.00
2023-05-06T08:15:57.038Z,27.25
2023-05-06T08:18:25.333Z,27.00
2023-05-06T08:20:55.948Z,26.00
2023-05-06T08:23:24.308Z,29.67
2023-05-06T08:25:53.029Z,27.25
2023-05-06T08:28:22.448Z,26.00
2023-05-06T08:30:52.601Z,24.75
2023-05-06T08:33:21.221Z,25.25
2023-05-06T08:35:52.064Z,20.00
2023-05-06T08:38:20.282Z,24.00
2023-05-06T08:40:49.105Z,25.00
2023-05-06T08:43:21.532Z,25.33
2023-05-06T08:45:50.260Z,25.25
2023-05-06T08:48:18.685Z,25.00
2023-05-06T08:50:49.398Z,24.00
2023-05-06T08:53:17.678Z,23.00
2023-05-06T08:55:47.460Z,22.25
2023-05-06T08:58:17.100Z,20.33
2023-05-06T09:00:46.553Z,19.50
2023-05-06T09:03:15.063Z,23.25
2023-05-06T09:05:43.610Z,23.25
2023-05-06T09:08:11.866Z,22.00
2023-05-06T09:10:47.540Z,22.00
2023-05-06T09:13:17.142Z,20.00
2023-05-06T09:15:47.796Z,18.75
2023-05-06T09:18:16.942Z,24.00
2023-05-06T09:20:48.322Z,23.00
2023-05-06T09:23:17.998Z,22.50
2023-05-06T09:25:47.886Z,21.00
2023-05-06T09:28:16.080Z,22.00
2023-05-06T09:30:47.938Z,23.00
2023-05-06T09:33:16.526Z,24.33
2023-05-06T09:35:45.890Z,22.25
2023-05-06T09:38:14.097Z,23.50
2023-05-06T09:40:42.585Z,23.75
2023-05-06T09:43:11.384Z,24.00
2023-05-06T09:45:40.218Z,22.67
2023-05-06T09:48:09.130Z,25.25
2023-05-06T09:50:37.729Z,23.25
2023-05-06T09:53:06.150Z,25.50
2023-05-06T09:55:35.583Z,23.00
2023-05-06T09:58:05.043Z,24.67
2023-05-06T10:00:34.350Z,21.50
2023-05-06T10:03:03.403Z,25.25
2023-05-06T10:05:34.341Z,26.00
2023-05-06T10:08:04.640Z,28.50
2023-05-06T10:10:35.280Z,28.50
2023-05-06T10:13:07.319Z,25.00
2023-05-06T10:15:38.324Z,25.50
2023-05-06T10:18:07.846Z,25.33
2023-05-06T10:20:37.286Z,27.50
2023-05-06T10:23:28.435Z,25.50
2023-05-06T10:25:58.188Z,24.00
2023-05-06T10:28:30.607Z,22.00
2023-05-06T10:31:00.425Z,23.00
2023-05-06T10:33:29.048Z,22.33
2023-05-06T10:36:08.120Z,22.00
2023-05-06T10:38:39.017Z,21.00
2023-05-06T10:41:09.322Z,20.00
2023-05-06T10:43:42.945Z,23.50
2023-05-06T10:46:18.174Z,23.25
2023-05-06T10:49:04.936Z,25.75
2023-05-06T10:51:37.997Z,22.25
2023-05-06T10:54:18.340Z,22.50
2023-05-06T10:56:50.146Z,23.00
2023-05-06T10:59:24.109Z,25.25
2023-05-06T11:02:04.822Z,23.25
2023-05-06T11:04:33.452Z,20.75
2023-05-06T11:07:13.635Z,25.25
2023-05-06T11:09:59.856Z,25.25
2023-05-06T11:12:47.044Z,22.25
2023-05-06T11:15:26.929Z,23.33
2023-05-06T11:17:56.708Z,25.25
2023-05-06T11:20:26.391Z,25.67
2023-05-06T11:22:55.483Z,24.00
2023-05-06T11:25:53.811Z,24.25
2023-05-06T11:28:22.961Z,22.50
2023-05-06T11:30:55.506Z,24.33
2023-05-06T11:33:25.258Z,23.00
2023-05-06T11:35:53.585Z,24.33
2023-05-06T11:38:22.218Z,23.00
2023-05-06T11:40:50.600Z,23.00
2023-05-06T11:43:19.217Z,23.00
2023-05-06T11:45:48.949Z,23.25
2023-05-06T11:48:18.589Z,23.50
2023-05-06T11:50:49.871Z,26.50
2023-05-06T11:53:21.334Z,22.00
2023-05-06T11:55:52.372Z,24.00
2023-05-06T11:58:28.299Z,22.00
2023-05-06T12:00:58.804Z,24.25
2023-05-06T12:03:29.288Z,24.50
2023-05-06T12:06:16.649Z,24.25
2023-05-06T12:08:46.045Z,24.00
2023-05-06T12:11:14.388Z,22.25
2023-05-06T12:13:43.381Z,24.00
2023-05-06T12:16:12.533Z,23.50
2023-05-06T12:18:41.183Z,24.00
2023-05-06T12:21:09.323Z,22.33
2023-05-06T12:23:37.702Z,24.33
2023-05-06T12:26:06.969Z,22.75
2023-05-06T12:28:37.100Z,22.25
2023-05-06T12:31:24.319Z,19.25
2023-05-06T12:33:53.644Z,24.00
2023-05-06T12:36:23.387Z,25.67
2023-05-06T12:38:53.161Z,23.50
2023-05-06T12:41:21.920Z,21.33
2023-05-06T12:43:53.076Z,20.25
2023-05-06T12:46:21.497Z,21.75
2023-05-06T12:49:16.662Z,23.00
2023-05-06T12:51:47.062Z,22.00
2023-05-06T12:54:31.789Z,23.50
2023-05-06T12:56:59.810Z,24.25
2023-05-06T12:59:29.849Z,25.00
2023-05-06T13:01:59.149Z,24.00
2023-05-06T13:04:27.862Z,23.00
2023-05-06T13:06:57.169Z,23.00
2023-05-06T13:09:26.183Z,23.00
2023-05-06T13:11:55.550Z,24.00
2023-05-06T13:14:25.328Z,23.00
2023-05-06T13:16:53.701Z,25.25
2023-05-06T13:19:32.327Z,23.50
2023-05-06T13:22:02.186Z,22.00
2023-05-06T13:24:32.318Z,23.00
2023-05-06T13:27:01.256Z,23.00
2023-05-06T13:29:30.006Z,23.00
2023-05-06T13:31:58.353Z,25.00
2023-05-06T13:34:27.129Z,22.00
2023-05-06T13:36:56.988Z,22.50
2023-05-06T13:39:26.728Z,25.75
2023-05-06T13:41:54.835Z,23.25
2023-05-06T13:44:24.651Z,22.33
2023-05-06T13:46:53.003Z,23.00
2023-05-06T13:49:22.503Z,25.33
2023-05-06T13:51:50.727Z,23.25
2023-05-06T13:54:19.966Z,20.25
2023-05-06T13:56:48.159Z,22.00
2023-05-06T13:59:16.637Z,21.50
2023-05-06T14:01:45.319Z,25.00
2023-05-06T14:04:14.024Z,25.00
2023-05-06T14:06:42.099Z,27.75
2023-05-06T14:09:12.600Z,24.25
2023-05-06T14:11:41.248Z,23.25
2023-05-06T14:14:09.615Z,23.33
2023-05-06T14:16:37.951Z,25.25
2023-05-06T14:19:07.741Z,23.33
2023-05-06T14:21:35.801Z,29.00
2023-05-06T14:24:07.513Z,25.00
2023-05-06T14:26:36.185Z,27.00
2023-05-06T14:29:05.713Z,23.00
2023-05-06T14:31:34.721Z,25.00
2023-05-06T14:34:03.301Z,22.50
2023-05-06T14:36:31.517Z,22.75
2023-05-06T14:39:00.024Z,25.25
2023-05-06T14:41:28.147Z,24.50
2023-05-06T14:43:57.702Z,24.00
2023-05-06T14:46:29.145Z,27.00
2023-05-06T14:48:58.153Z,24.50
2023-05-06T14:51:26.357Z,27.75
2023-05-06T14:53:54.672Z,24.75
2023-05-06T14:56:22.835Z,25.00
2023-05-06T14:58:52.282Z,24.50
2023-05-06T15:01:20.636Z,22.75
2023-05-06T15:03:51.328Z,23.00
2023-05-06T15:06:20.054Z,22.00
2023-05-06T15:08:48.565Z,22.75
2023-05-06T15:11:17.054Z,21.25
2023-05-06T15:13:45.668Z,23.25
2023-05-06T15:16:13.995Z,23.00
2023-05-06T15:18:43.025Z,20.00
2023-05-06T15:21:13.617Z,21.00
2023-05-06T15:23:42.129Z,19.25
2023-05-06T15:26:10.249Z,21.00
2023-05-06T15:28:38.729Z,22.00
2023-05-06T15:31:06.840Z,21.25
2023-05-06T15:33:35.610Z,21.25
2023-05-06T15:36:03.828Z,21.00
2023-05-06T15:39:00.361Z,20.00
2023-05-06T15:41:32.297Z,20.25
2023-05-06T15:44:02.208Z,21.75
2023-05-06T15:46:31.650Z,20.75
2023-05-06T15:51:31.831Z,22.00
2023-05-06T15:54:00.329Z,19.00
2023-05-06T15:56:28.534Z,21.00
2023-05-06T15:58:58.109Z,18.00
2023-05-06T16:01:47.934Z,21.00
2023-05-06T16:04:16.824Z,19.00
2023-05-06T16:06:45.123Z,19.00
2023-05-06T16:09:13.790Z,20.00
2023-05-06T16:11:41.852Z,19.67
2023-05-06T16:14:11.328Z,22.00
2023-05-06T16:16:39.354Z,20.00
2023-05-06T16:19:07.866Z,21.50
2023-05-06T16:21:36.050Z,20.25
2023-05-06T16:24:05.014Z,20.25
2023-05-06T16:26:33.096Z,21.25
2023-05-06T16:29:01.828Z,21.00
2023-05-06T16:31:30.171Z,20.00
2023-05-06T16:33:58.477Z,20.00
2023-05-06T16:36:28.777Z,21.25
2023-05-06T16:38:57.107Z,22.25
2023-05-06T16:41:25.280Z,20.75
2023-05-06T16:43:53.903Z,21.25
2023-05-06T16:46:24.276Z,21.00
2023-05-06T16:48:54.058Z,22.00
2023-05-06T16:51:22.256Z,22.00
2023-05-06T16:53:51.166Z,21.67
2023-05-06T16:56:19.345Z,21.00
2023-05-06T16:58:47.580Z,22.00
2023-05-06T17:01:15.683Z,20.00
2023-05-06T17:03:44.103Z,21.00
2023-05-06T17:06:12.162Z,21.00
2023-05-06T17:08:40.433Z,21.00
2023-05-06T17:11:08.602Z,21.00
2023-05-06T17:13:37.118Z,21.25
2023-05-06T17:16:05.364Z,20.50
2023-05-06T17:18:33.758Z,21.00
2023-05-06T17:21:02.222Z,22.25
2023-05-06T17:23:30.847Z,22.00
2023-05-06T17:25:58.901Z,21.00
2023-05-06T17:28:28.259Z,21.00
2023-05-06T17:30:56.497Z,23.25
2023-05-06T17:33:25.072Z,23.50
2023-05-06T17:35:52.999Z,23.00
2023-05-06T17:38:21.339Z,20.25
2023-05-06T17:40:49.298Z,20.00
2023-05-06T17:43:17.778Z,22.00
2023-05-06T17:45:46.338Z,21.25
2023-05-06T17:48:14.690Z,22.00
2023-05-06T17:50:42.690Z,22.50
2023-05-06T17:53:10.995Z,22.00
2023-05-06T17:55:39.082Z,23.00
2023-05-06T17:58:08.502Z,19.00
2023-05-06T18:00:38.042Z,19.00
2023-05-06T18:03:06.405Z,20.00
2023-05-06T18:05:34.521Z,23.33
2023-05-06T18:08:02.907Z,20.25
2023-05-06T18:10:31.223Z,20.75
2023-05-06T18:12:59.690Z,19.25
2023-05-06T18:15:27.761Z,18.00
2023-05-06T18:17:57.436Z,18.00
2023-05-06T18:20:25.635Z,18.25
2023-05-06T18:22:53.857Z,18.25
2023-05-06T18:25:22.050Z,18.00
2023-05-06T18:27:51.009Z,17.50
2023-05-06T18:30:18.954Z,18.25
2023-05-06T18:32:48.782Z,18.00
2023-05-06T18:35:18.959Z,16.00
2023-05-06T18:37:47.238Z,16.33
2023-05-06T18:40:15.506Z,18.25
2023-05-06T18:42:43.790Z,20.75
2023-05-06T18:45:12.449Z,19.25
2023-05-06T18:47:42.031Z,21.67
2023-05-06T18:50:10.259Z,21.25
2023-05-06T18:52:39.900Z,22.75
2023-05-06T18:55:09.067Z,23.00
2023-05-06T18:57:39.741Z,22.33
2023-05-06T19:00:08.412Z,19.25
2023-05-06T19:02:37.984Z,18.33
2023-05-06T19:05:07.916Z,19.00
2023-05-06T19:07:36.437Z,18.00
2023-05-06T19:10:05.303Z,20.00
2023-05-06T19:12:34.969Z,18.75
2023-05-06T19:15:03.064Z,19.00
2023-05-06T19:17:31.376Z,19.00
2023-05-06T19:20:00.153Z,18.00
2023-05-06T19:22:30.525Z,20.00
2023-05-06T19:24:58.574Z,22.25
2023-05-06T19:27:26.843Z,22.25
2023-05-06T19:29:55.274Z,22.00
2023-05-06T19:32:23.518Z,23.75
2023-05-06T19:34:51.532Z,23.00
2023-05-06T19:37:19.804Z,24.00
2023-05-06T19:39:49.725Z,27.00
2023-05-06T19:42:17.962Z,25.33
2023-05-06T19:44:48.267Z,24.00
2023-05-06T19:47:16.816Z,26.00
2023-05-06T19:49:44.828Z,28.25
2023-05-06T19:52:13.384Z,29.00
2023-05-06T19:54:41.379Z,29.00
2023-05-06T19:57:09.665Z,28.50
2023-05-06T19:59:38.232Z,26.50
2023-05-06T20:02:06.722Z,28.00
2023-05-06T20:04:34.834Z,27.00
2023-05-06T20:07:03.836Z,26.00
2023-05-06T20:09:31.827Z,28.00
2023-05-06T20:12:00.152Z,25.33
2023-05-06T20:14:28.361Z,26.25
2023-05-06T20:16:57.933Z,24.00
2023-05-06T20:19:30.884Z,25.00
2023-05-06T20:22:00.604Z,22.00
2023-05-06T20:24:29.585Z,23.00
2023-05-06T20:26:59.182Z,23.00
2023-05-06T20:29:27.174Z,21.00
2023-05-06T20:31:55.739Z,22.33
2023-05-06T20:34:24.305Z,21.25
2023-05-06T20:36:56.307Z,21.00
2023-05-06T20:39:24.258Z,22.00
2023-05-06T20:41:52.586Z,24.75
2023-05-06T20:44:20.957Z,22.00
2023-05-06T20:46:49.215Z,24.25
2023-05-06T20:49:17.334Z,25.00
2023-05-06T20:51:46.709Z,22.00
2023-05-06T20:54:14.783Z,23.33
2023-05-06T20:56:43.689Z,24.00
2023-05-06T20:59:11.739Z,21.00
2023-05-06T21:01:40.221Z,22.00
2023-05-06T21:04:08.280Z,21.75
2023-05-06T21:06:36.582Z,21.33
2023-05-06T21:09:04.589Z,20.25
2023-05-06T21:11:32.863Z,19.50
2023-05-06T21:14:00.929Z,22.25
2023-05-06T21:16:29.196Z,22.25
2023-05-06T21:18:57.139Z,21.00
2023-05-06T21:21:25.886Z,22.25
2023-05-06T21:23:53.761Z,20.00
2023-05-06T21:26:22.398Z,20.50
2023-05-06T21:28:53.441Z,20.00
2023-05-06T21:31:23.085Z,19.00
2023-05-06T21:33:55.402Z,19.25
2023-05-06T21:36:24.030Z,20.00
2023-05-06T21:39:21.278Z,21.00
2023-05-06T21:41:49.729Z,19.50
2023-05-06T21:44:17.740Z,20.00
2023-05-06T21:46:48.660Z,21.00
2023-05-06T21:49:16.808Z,19.25
2023-05-06T21:51:45.308Z,22.25
2023-05-06T21:54:13.292Z,21.00
2023-05-06T21:56:42.585Z,19.00
2023-05-06T21:59:10.637Z,19.00
2023-05-06T22:01:39.160Z,18.00
2023-05-06T22:04:11.680Z,19.50
2023-05-06T22:06:41.194Z,17.50
2023-05-06T22:09:09.860Z,19.00
2023-05-06T22:11:38.787Z,17.33
2023-05-06T22:14:07.110Z,17.00
2023-05-06T22:16:35.816Z,16.00
2023-05-06T22:19:04.971Z,19.00
2023-05-06T22:21:34.951Z,17.00
2023-05-06T22:24:03.043Z,16.00
2023-05-06T22:26:33.268Z,17.25
2023-05-06T22:29:01.311Z,18.33
2023-05-06T22:31:29.628Z,19.25
2023-05-06T22:33:58.326Z,18.00
2023-05-06T22:36:29.298Z,19.00
2023-05-06T22:38:57.550Z,19.00
2023-05-06T22:41:26.175Z,19.25
2023-05-06T22:43:54.123Z,18.00
2023-05-06T22:46:23.580Z,20.33
2023-05-06T22:48:51.932Z,18.00
2023-05-06T22:51:21.368Z,21.00
2023-05-06T22:53:49.324Z,19.25
2023-05-06T22:56:19.186Z,19.33
2023-05-06T22:58:47.237Z,19.00
2023-05-06T23:01:15.491Z,19.25
2023-05-06T23:03:43.738Z,18.00
2023-05-06T23:06:12.070Z,19.50
2023-05-06T23:08:40.064Z,19.50
2023-05-06T23:11:08.712Z,19.00
2023-05-06T23:13:36.686Z,19.75
2023-05-06T23:16:05.503Z,21.00
2023-05-06T23:18:33.539Z,20.00
2023-05-06T23:21:01.868Z,22.00
2023-05-06T23:23:30.058Z,21.25
2023-05-06T23:25:58.462Z,21.75
2023-05-06T23:28:27.004Z,22.00
2023-05-06T23:30:55.260Z,22.00
2023-05-06T23:33:23.242Z,20.50
2023-05-06T23:35:51.495Z,21.25
2023-05-06T23:38:19.540Z,20.00
2023-05-06T23:40:47.859Z,21.25
2023-05-06T23:43:15.953Z,21.00
2023-05-06T23:45:45.623Z,21.00
2023-05-06T23:48:13.584Z,21.25
2023-05-06T23:50:41.838Z,22.00
2023-05-06T23:53:09.831Z,20.00
2023-05-06T23:55:38.406Z,20.00
2023-05-06T23:58:06.365Z,20.00
